createdAt,value
2018-02-13T00:00:44.196Z,16.52
2018-02-13T00:03:13.280Z,17.65
2018-02-13T00:05:42.432Z,14.70
2018-02-13T00:08:10.785Z,19.85
2018-02-13T00:10:39.108Z,22.13
2018-02-13T00:13:07.480Z,17.50
2018-02-13T00:15:35.796Z,13.65
2018-02-13T00:18:04.124Z,19.70
2018-02-13T00:20:33.360Z,18.95
2018-02-13T00:23:01.687Z,17.95
2018-02-13T00:25:30.025Z,24.55
2018-02-13T00:27:59.153Z,15.73
2018-02-13T00:30:27.479Z,21.10
2018-02-13T00:32:55.812Z,16.58
2018-02-13T00:35:24.219Z,19.23
2018-02-13T00:37:52.559Z,16.70
2018-02-13T00:40:20.889Z,16.98
2018-02-13T00:42:49.383Z,10.02
2018-02-13T00:45:17.708Z,24.27
2018-02-13T00:47:46.075Z,17.55
2018-02-13T00:50:14.444Z,21.05
2018-02-13T00:52:42.751Z,14.90
2018-02-13T00:55:11.061Z,14.10
2018-02-13T00:57:39.415Z,14.80
2018-02-13T01:00:07.735Z,20.73
2018-02-13T01:02:36.048Z,18.25
2018-02-13T01:05:04.425Z,18.77
2018-02-13T01:07:32.747Z,15.43
2018-02-13T01:10:01.063Z,20.75
2018-02-13T01:12:30.176Z,20.25
2018-02-13T01:14:58.488Z,15.80
2018-02-13T01:17:26.807Z,17.05
2018-02-13T01:19:55.171Z,14.25
2018-02-13T01:22:23.484Z,14.07
2018-02-13T01:24:51.840Z,19.55
2018-02-13T01:27:20.206Z,15.35
2018-02-13T01:29:48.531Z,15.07
2018-02-13T01:32:16.871Z,16.62
2018-02-13T01:34:45.197Z,19.58
2018-02-13T01:37:13.578Z,18.87
2018-02-13T01:39:42.024Z,18.87
2018-02-13T01:42:11.501Z,19.90
2018-02-13T01:44:40.140Z,15.93
2018-02-13T01:47:08.957Z,16.00
2018-02-13T01:49:37.494Z,24.02
2018-02-13T01:52:05.840Z,17.15
2018-02-13T01:54:34.983Z,17.70
2018-02-13T01:57:03.308Z,22.42
2018-02-13T01:59:31.864Z,17.90
2018-02-13T02:02:00.367Z,20.83
2018-02-13T02:04:28.683Z,11.75
2018-02-13T02:06:57.000Z,11.82
2018-02-13T02:09:25.344Z,19.05
2018-02-13T02:11:53.664Z,15.90
2018-02-13T02:14:22.044Z,18.30
2018-02-13T02:16:50.376Z,20.62
2018-02-13T02:19:18.718Z,11.90
2018-02-13T02:21:47.087Z,16.95
2018-02-13T02:24:15.442Z,14.98
2018-02-13T02:26:44.283Z,14.68
2018-02-13T02:29:12.886Z,12.68
2018-02-13T02:31:41.208Z,17.00
2018-02-13T02:34:09.529Z,18.92
2018-02-13T02:36:37.907Z,9.48
2018-02-13T02:39:07.580Z,13.23
2018-02-13T02:41:36.675Z,12.90
2018-02-13T02:44:05.105Z,10.63
2018-02-13T02:46:33.543Z,9.30
2018-02-13T02:49:01.939Z,11.38
2018-02-13T02:51:30.270Z,11.57
2018-02-13T02:53:58.599Z,10.55
2018-02-13T02:56:26.947Z,13.48
2018-02-13T02:58:55.272Z,15.02
2018-02-13T03:01:23.637Z,14.65
2018-02-13T03:03:52.059Z,21.42
2018-02-13T03:06:20.592Z,17.87
2018-02-13T03:08:49.226Z,17.73
2018-02-13T03:11:17.909Z,15.50
2018-02-13T03:13:46.612Z,20.12
2018-02-13T03:16:15.266Z,14.10
2018-02-13T03:18:43.747Z,20.12
2018-02-13T03:21:12.063Z,12.57
2018-02-13T03:23:40.396Z,14.32
2018-02-13T03:26:08.753Z,16.52
2018-02-13T03:28:37.839Z,15.27
2018-02-13T03:31:06.956Z,14.40
2018-02-13T03:33:35.831Z,20.27
2018-02-13T03:36:04.911Z,22.62
2018-02-13T03:38:33.295Z,10.57
2018-02-13T03:41:02.237Z,15.02
2018-02-13T03:43:30.556Z,12.48
2018-02-13T03:45:59.814Z,13.40
2018-02-13T03:48:28.125Z,11.95
2018-02-13T03:50:56.434Z,14.55
2018-02-13T03:53:25.535Z,17.50
2018-02-13T03:55:54.619Z,17.90
2018-02-13T03:58:23.743Z,16.75
2018-02-13T04:00:52.058Z,17.87
2018-02-13T04:03:20.370Z,18.12
2018-02-13T04:05:48.740Z,11.55
2018-02-13T04:08:17.055Z,15.63
2018-02-13T04:10:45.372Z,14.95
2018-02-13T04:13:13.740Z,17.73
2018-02-13T04:15:42.047Z,16.92
2018-02-13T04:18:10.359Z,19.17
2018-02-13T04:20:38.702Z,17.12
2018-02-13T04:23:07.007Z,14.13
2018-02-13T04:25:35.347Z,18.62
2018-02-13T04:28:03.679Z,17.40
2018-02-13T04:30:32.236Z,17.92
2018-02-13T04:33:00.643Z,21.67
2018-02-13T04:35:29.300Z,26.65
2018-02-13T04:37:57.653Z,18.02
2018-02-13T04:40:25.991Z,19.20
2018-02-13T04:42:54.303Z,17.92
2018-02-13T04:45:22.648Z,23.38
2018-02-13T04:47:50.957Z,13.80
2018-02-13T04:50:19.379Z,20.20
2018-02-13T04:52:47.707Z,23.92
2018-02-13T04:55:16.023Z,16.35
2018-02-13T04:57:44.406Z,17.67
2018-02-13T05:00:13.487Z,24.58
2018-02-13T05:02:41.847Z,23.58
2018-02-13T05:05:10.202Z,17.85
2018-02-13T05:07:38.515Z,11.80
2018-02-13T05:10:06.873Z,14.75
2018-02-13T05:12:35.216Z,13.55
2018-02-13T05:15:03.595Z,14.20
2018-02-13T05:17:31.905Z,19.95
2018-02-13T05:20:00.210Z,17.73
2018-02-13T05:22:28.543Z,13.98
2018-02-13T05:24:56.871Z,20.37
2018-02-13T05:27:25.979Z,17.37
2018-02-13T05:29:55.075Z,19.80
2018-02-13T05:32:24.186Z,16.37
2018-02-13T05:34:53.099Z,16.75
2018-02-13T05:37:21.416Z,11.68
2018-02-13T05:39:49.783Z,12.13
2018-02-13T05:42:18.288Z,8.63
2018-02-13T05:44:46.624Z,18.95
2018-02-13T05:47:14.958Z,13.70
2018-02-13T05:49:43.275Z,13.15
2018-02-13T05:52:11.696Z,12.65
2018-02-13T05:54:40.038Z,16.37
2018-02-13T05:57:08.359Z,15.65
2018-02-13T05:59:36.681Z,20.27
2018-02-13T06:02:05.192Z,17.25
2018-02-13T06:04:33.798Z,16.95
2018-02-13T06:07:02.354Z,18.40
2018-02-13T06:09:30.874Z,21.40
2018-02-13T06:11:59.528Z,18.87
2018-02-13T06:14:27.871Z,16.70
2018-02-13T06:16:56.186Z,20.65
2018-02-13T06:19:24.551Z,21.62
2018-02-13T06:21:52.867Z,27.50
2018-02-13T06:24:21.343Z,22.50
2018-02-13T06:26:49.783Z,19.85
2018-02-13T06:29:18.115Z,22.15
2018-02-13T06:31:46.812Z,20.67
2018-02-13T06:34:15.549Z,22.58
2018-02-13T06:36:44.106Z,23.50
2018-02-13T06:39:13.177Z,20.55
2018-02-13T06:41:42.954Z,21.17
2018-02-13T06:44:11.358Z,18.15
2018-02-13T06:46:40.109Z,27.48
2018-02-13T06:49:08.896Z,20.20
2018-02-13T06:51:38.190Z,22.35
2018-02-13T06:54:06.543Z,27.30
2018-02-13T06:56:34.923Z,22.80
2018-02-13T06:59:03.574Z,20.27
2018-02-13T07:01:32.269Z,24.65
2018-02-13T07:04:01.166Z,22.40
2018-02-13T07:06:30.466Z,21.85
2018-02-13T07:08:59.421Z,28.65
2018-02-13T07:11:27.767Z,24.65
2018-02-13T07:13:56.086Z,26.50
2018-02-13T07:16:24.749Z,22.58
2018-02-13T07:18:53.449Z,22.15
2018-02-13T07:21:21.980Z,23.23
2018-02-13T07:23:50.666Z,24.17
2018-02-13T07:26:19.417Z,44.35
2018-02-13T07:28:47.951Z,26.92
2018-02-13T07:31:16.688Z,31.60
2018-02-13T07:33:45.027Z,25.77
2018-02-13T07:36:13.517Z,26.80
2018-02-13T07:38:42.671Z,27.15
2018-02-13T07:41:10.993Z,31.55
2018-02-13T07:43:39.316Z,27.90
2018-02-13T07:46:07.667Z,22.58
2018-02-13T07:48:36.752Z,24.92
2018-02-13T07:51:05.108Z,17.05
2018-02-13T07:53:33.440Z,18.75
2018-02-13T07:56:01.767Z,16.60
2018-02-13T07:58:30.128Z,22.55
2018-02-13T08:00:58.438Z,27.65
2018-02-13T08:03:26.800Z,15.73
2018-02-13T08:05:55.155Z,22.45
2018-02-13T08:08:23.475Z,19.65
2018-02-13T08:10:51.827Z,14.95
2018-02-13T08:13:20.139Z,17.27
2018-02-13T08:15:49.284Z,19.02
2018-02-13T08:18:17.599Z,17.33
2018-02-13T08:20:45.928Z,18.87
2018-02-13T08:23:14.264Z,14.77
2018-02-13T08:25:42.582Z,20.52
2018-02-13T08:28:11.679Z,17.17
2018-02-13T08:30:39.988Z,20.67
2018-02-13T08:33:08.662Z,16.50
2018-02-13T08:35:37.033Z,18.77
2018-02-13T08:38:05.347Z,20.55
2018-02-13T08:40:33.664Z,19.85
2018-02-13T08:43:02.040Z,13.20
2018-02-13T08:45:30.368Z,19.60
2018-02-13T08:47:58.691Z,23.23
2018-02-13T08:50:27.006Z,19.45
2018-02-13T08:52:55.327Z,20.58
2018-02-13T08:55:23.643Z,16.25
2018-02-13T08:57:51.995Z,18.75
2018-02-13T09:00:21.084Z,18.33
2018-02-13T09:02:50.175Z,22.92
2018-02-13T09:05:19.314Z,20.05
2018-02-13T09:07:47.647Z,20.12
2018-02-13T09:10:15.959Z,13.77
2018-02-13T09:12:44.307Z,12.43
2018-02-13T09:15:12.619Z,16.58
2018-02-13T09:17:40.979Z,13.52
2018-02-13T09:20:10.259Z,11.30
2018-02-13T09:22:38.587Z,18.15
2018-02-13T09:25:06.908Z,13.85
2018-02-13T09:27:35.342Z,14.35
2018-02-13T09:30:03.660Z,15.23
2018-02-13T09:32:32.735Z,15.52
2018-02-13T09:35:01.111Z,16.85
2018-02-13T09:37:29.492Z,16.17
2018-02-13T09:39:57.807Z,15.98
2018-02-13T09:42:27.091Z,11.07
2018-02-13T09:44:55.407Z,11.68
2018-02-13T09:47:23.724Z,15.20
2018-02-13T09:49:52.067Z,18.12
2018-02-13T09:52:20.379Z,12.18
2018-02-13T09:54:48.697Z,12.30
2018-02-13T09:57:17.058Z,11.43
2018-02-13T09:59:45.372Z,15.32
2018-02-13T10:02:13.690Z,8.38
2018-02-13T10:04:42.055Z,8.82
2018-02-13T10:07:10.367Z,9.65
2018-02-13T10:09:38.683Z,9.85
2018-02-13T10:12:07.071Z,4.28
2018-02-13T10:14:35.370Z,10.00
2018-02-13T10:17:03.677Z,6.87
2018-02-13T10:19:32.039Z,11.00
2018-02-13T10:22:00.340Z,6.60
2018-02-13T10:24:28.644Z,5.72
2018-02-13T10:26:57.020Z,6.43
2018-02-13T10:29:25.325Z,5.93
2018-02-13T10:31:53.653Z,7.67
2018-02-13T10:34:21.999Z,7.50
2018-02-13T10:36:50.299Z,6.33
2018-02-13T10:39:18.368Z,4.65
2018-02-13T10:41:46.701Z,5.72
2018-02-13T10:44:15.005Z,5.43
2018-02-13T10:46:44.539Z,4.75
2018-02-13T10:49:12.840Z,8.50
2018-02-13T10:51:41.139Z,11.30
2018-02-13T10:54:09.480Z,7.93
2018-02-13T10:56:37.818Z,6.93
2018-02-13T10:59:06.163Z,6.90
2018-02-13T11:01:38.139Z,4.67
2018-02-13T11:04:06.446Z,9.25
2018-02-13T11:06:34.780Z,7.37
2018-02-13T11:09:03.585Z,5.40
2018-02-13T11:11:31.878Z,4.60
2018-02-13T11:14:00.175Z,5.20
2018-02-13T11:16:28.531Z,5.73
2018-02-13T11:18:56.830Z,2.73
2018-02-13T11:21:25.131Z,5.97
2018-02-13T11:23:54.420Z,4.53
2018-02-13T11:26:22.706Z,3.47
2018-02-13T11:28:51.775Z,3.20
2018-02-13T11:31:20.119Z,3.30
2018-02-13T11:33:48.419Z,4.03
2018-02-13T11:36:16.714Z,6.70
2018-02-13T11:38:45.548Z,3.37
2018-02-13T11:41:13.855Z,3.53
2018-02-13T11:43:42.303Z,5.37
2018-02-13T11:46:10.613Z,5.87
2018-02-13T11:48:38.916Z,5.87
2018-02-13T11:51:07.247Z,2.90
2018-02-13T11:53:35.551Z,4.63
2018-02-13T11:56:04.666Z,4.90
2018-02-13T11:58:32.972Z,6.30
2018-02-13T12:01:02.044Z,4.07
2018-02-13T12:03:30.388Z,4.70
2018-02-13T12:05:58.682Z,7.20
2018-02-13T12:08:26.993Z,4.53
2018-02-13T12:10:55.407Z,6.03
2018-02-13T12:13:23.702Z,3.67
2018-02-13T12:15:52.015Z,3.42
2018-02-13T12:18:20.405Z,2.83
2018-02-13T12:20:49.491Z,5.07
2018-02-13T12:23:18.551Z,4.10
2018-02-13T12:25:46.899Z,4.10
2018-02-13T12:28:15.203Z,7.63
2018-02-13T12:30:43.502Z,7.13
2018-02-13T12:33:11.935Z,8.87
2018-02-13T12:35:40.231Z,9.93
2018-02-13T12:38:08.557Z,5.10
2018-02-13T12:40:36.999Z,11.17
2018-02-13T12:43:05.317Z,12.80
2018-02-13T12:45:33.624Z,6.97
2018-02-13T12:48:01.966Z,5.10
2018-02-13T12:50:31.026Z,4.40
2018-02-13T12:52:59.327Z,7.13
2018-02-13T12:55:27.907Z,3.00
2018-02-13T12:57:56.227Z,5.13
2018-02-13T13:00:24.536Z,3.97
2018-02-13T13:02:52.878Z,11.73
2018-02-13T13:05:21.180Z,3.80
2018-02-13T13:07:49.483Z,3.70
2018-02-13T13:10:17.864Z,5.07
2018-02-13T13:12:46.194Z,4.97
2018-02-13T13:15:14.482Z,4.00
2018-02-13T13:17:42.860Z,4.80
2018-02-13T13:20:11.175Z,3.77
2018-02-13T13:22:39.482Z,4.90
2018-02-13T13:25:08.651Z,6.00
2018-02-13T13:27:36.954Z,10.00
2018-02-13T13:30:05.255Z,9.70
2018-02-13T13:32:33.683Z,5.80
2018-02-13T13:35:01.993Z,4.97
2018-02-13T13:37:30.298Z,7.10
2018-02-13T13:39:58.671Z,10.43
2018-02-13T13:42:26.976Z,7.73
2018-02-13T13:44:55.271Z,9.10
2018-02-13T13:47:23.643Z,10.13
2018-02-13T13:49:51.975Z,5.27
2018-02-13T13:52:20.267Z,5.10
2018-02-13T13:54:48.635Z,6.50
2018-02-13T13:57:16.947Z,4.20
2018-02-13T13:59:45.260Z,7.10
2018-02-13T14:02:14.383Z,5.70
2018-02-13T14:04:42.748Z,4.97
2018-02-13T14:07:11.042Z,12.00
2018-02-13T14:09:39.413Z,4.60
2018-02-13T14:12:08.658Z,6.43
2018-02-13T14:14:36.973Z,11.00
2018-02-13T14:17:06.235Z,7.80
2018-02-13T14:19:34.551Z,6.97
2018-02-13T14:22:03.616Z,3.73
2018-02-13T14:24:31.792Z,10.07
2018-02-13T14:27:00.175Z,6.90
2018-02-13T14:29:28.507Z,13.77
2018-02-13T14:31:56.811Z,7.57
2018-02-13T14:34:25.231Z,5.80
2018-02-13T14:36:54.302Z,9.87
2018-02-13T14:39:22.603Z,7.30
2018-02-13T14:41:51.695Z,6.67
2018-02-13T14:44:20.763Z,8.57
2018-02-13T14:46:49.141Z,2.70
2018-02-13T14:49:17.437Z,3.90
2018-02-13T14:51:45.747Z,5.73
2018-02-13T14:54:14.079Z,8.63
2018-02-13T14:56:42.380Z,10.30
2018-02-13T14:59:10.688Z,14.07
2018-02-13T15:01:39.107Z,4.50
2018-02-13T15:04:07.409Z,6.07
2018-02-13T15:06:36.517Z,6.60
2018-02-13T15:09:04.850Z,4.00
2018-02-13T15:11:33.171Z,9.18
2018-02-13T15:14:01.467Z,6.20
2018-02-13T15:16:29.820Z,10.13
2018-02-13T15:18:58.875Z,6.00
2018-02-13T15:21:27.220Z,6.83
2018-02-13T15:23:55.570Z,10.27
2018-02-13T15:26:23.870Z,7.20
2018-02-13T15:28:52.175Z,7.13
2018-02-13T15:31:20.527Z,7.80
2018-02-13T15:33:48.823Z,7.00
2018-02-13T15:36:17.128Z,7.50
2018-02-13T15:38:45.503Z,10.00
2018-02-13T15:41:13.808Z,3.50
2018-02-13T15:43:42.884Z,13.07
2018-02-13T15:46:11.242Z,10.07
2018-02-13T15:48:39.557Z,6.23
2018-02-13T15:51:07.877Z,12.43
2018-02-13T15:53:36.206Z,7.10
2018-02-13T15:56:05.771Z,7.23
2018-02-13T15:58:34.094Z,8.87
2018-02-13T16:01:02.411Z,7.75
2018-02-13T16:03:30.954Z,8.87
2018-02-13T16:06:00.032Z,5.25
2018-02-13T16:08:28.375Z,4.28
2018-02-13T16:10:56.740Z,5.87
2018-02-13T16:13:25.384Z,7.63
2018-02-13T16:15:53.700Z,4.60
2018-02-13T16:18:22.215Z,5.77
2018-02-13T16:20:51.768Z,14.57
2018-02-13T16:23:20.615Z,9.02
2018-02-13T16:25:48.931Z,5.10
2018-02-13T16:28:17.244Z,10.75
2018-02-13T16:30:46.060Z,8.40
2018-02-13T16:33:14.372Z,8.00
2018-02-13T16:35:42.689Z,5.18
2018-02-13T16:38:11.086Z,8.45
2018-02-13T16:40:39.400Z,12.52
2018-02-13T16:43:07.706Z,19.93
2018-02-13T16:45:36.887Z,8.23
2018-02-13T16:48:06.319Z,12.25
2018-02-13T16:50:34.632Z,10.38
2018-02-13T16:53:02.972Z,7.97
2018-02-13T16:55:31.276Z,8.63
2018-02-13T16:57:59.604Z,8.98
2018-02-13T17:00:27.959Z,8.00
2018-02-13T17:02:56.372Z,12.93
2018-02-13T17:05:24.694Z,9.52
2018-02-13T17:07:53.057Z,11.70
2018-02-13T17:10:21.408Z,7.28
2018-02-13T17:12:49.763Z,9.73
2018-02-13T17:15:18.134Z,5.65
2018-02-13T17:17:46.451Z,7.32
2018-02-13T17:20:14.815Z,12.73
2018-02-13T17:22:48.753Z,8.85
2018-02-13T17:25:17.075Z,7.28
2018-02-13T17:27:44.924Z,7.82
2018-02-13T17:30:13.235Z,12.50
2018-02-13T17:32:41.555Z,23.90
2018-02-13T17:35:09.902Z,20.33
2018-02-13T17:37:38.983Z,41.20
2018-02-13T17:40:07.359Z,21.27
2018-02-13T17:42:35.679Z,18.55
2018-02-13T17:45:03.992Z,23.48
2018-02-13T17:47:32.365Z,10.45
2018-02-13T17:50:00.676Z,8.85
2018-02-13T17:52:28.987Z,9.98
2018-02-13T17:54:57.367Z,8.07
2018-02-13T17:57:25.688Z,7.12
2018-02-13T17:59:54.002Z,7.55
2018-02-13T18:02:22.359Z,7.50
2018-02-13T18:04:50.679Z,7.68
2018-02-13T18:07:19.008Z,10.82
2018-02-13T18:09:47.388Z,7.22
2018-02-13T18:12:15.708Z,12.93
2018-02-13T18:14:44.025Z,8.93
2018-02-13T18:17:12.427Z,11.65
2018-02-13T18:19:40.755Z,8.35
2018-02-13T18:22:09.150Z,10.77
2018-02-13T18:24:37.522Z,7.97
2018-02-13T18:27:05.906Z,10.38
2018-02-13T18:29:34.272Z,12.60
2018-02-13T18:32:02.585Z,12.95
2018-02-13T18:34:30.896Z,8.80
2018-02-13T18:36:59.621Z,18.33
2018-02-13T18:39:27.931Z,13.13
2018-02-13T18:41:56.256Z,12.40
2018-02-13T18:44:24.622Z,15.27
2018-02-13T18:46:52.939Z,16.50
2018-02-13T18:49:21.262Z,21.75
2018-02-13T18:51:50.599Z,20.17
2018-02-13T18:54:18.747Z,15.85
2018-02-13T18:56:47.246Z,13.43
2018-02-13T18:59:15.395Z,12.75
2018-02-13T19:01:43.735Z,23.75
2018-02-13T19:04:12.203Z,53.97
2018-02-13T19:06:40.510Z,23.98
2018-02-13T19:09:08.863Z,18.87
2018-02-13T19:11:37.271Z,13.98
2018-02-13T19:14:05.587Z,14.65
2018-02-13T19:16:33.904Z,15.35
2018-02-13T19:19:02.266Z,20.40
2018-02-13T19:21:30.591Z,18.33
2018-02-13T19:23:58.915Z,14.35
2018-02-13T19:26:27.279Z,11.02
2018-02-13T19:28:55.591Z,22.65
2018-02-13T19:31:23.902Z,12.40
2018-02-13T19:33:52.293Z,12.88
2018-02-13T19:36:21.388Z,18.12
2018-02-13T19:38:50.494Z,17.25
2018-02-13T19:41:19.939Z,15.40
2018-02-13T19:43:48.242Z,15.80
2018-02-13T19:46:16.655Z,19.02
2018-02-13T19:48:44.979Z,14.20
2018-02-13T19:51:13.620Z,16.45
2018-02-13T19:53:42.000Z,15.65
2018-02-13T19:56:11.067Z,21.15
2018-02-13T19:58:39.488Z,16.83
2018-02-13T20:01:07.800Z,18.05
2018-02-13T20:03:36.171Z,21.08
2018-02-13T20:06:04.812Z,15.00
2018-02-13T20:08:33.127Z,21.60
2018-02-13T20:11:01.511Z,14.32
2018-02-13T20:13:29.827Z,20.37
2018-02-13T20:15:58.134Z,21.62
2018-02-13T20:18:26.521Z,17.37
2018-02-13T20:20:54.868Z,22.45
2018-02-13T20:23:23.335Z,21.62
2018-02-13T20:25:51.699Z,12.60
2018-02-13T20:28:20.022Z,18.48
2018-02-13T20:30:48.451Z,15.18
2018-02-13T20:33:16.768Z,13.70
2018-02-13T20:35:45.419Z,17.42
2018-02-13T20:38:13.800Z,22.33
2018-02-13T20:40:42.328Z,15.73
2018-02-13T20:43:10.779Z,15.00
2018-02-13T20:45:39.074Z,12.25
2018-02-13T20:48:08.165Z,13.10
2018-02-13T20:50:37.322Z,12.65
2018-02-13T20:53:05.641Z,18.25
2018-02-13T20:55:33.964Z,18.48
2018-02-13T20:58:02.323Z,11.07
2018-02-13T21:00:30.639Z,22.58
2018-02-13T21:02:58.959Z,20.15
2018-02-13T21:05:27.123Z,16.20
2018-02-13T21:07:56.204Z,19.33
2018-02-13T21:10:24.555Z,12.27
2018-02-13T21:12:52.913Z,12.60
2018-02-13T21:15:21.464Z,13.30
2018-02-13T21:17:49.874Z,21.55
2018-02-13T21:20:18.232Z,19.15
2018-02-13T21:22:47.319Z,18.40
2018-02-13T21:25:16.451Z,20.85
2018-02-13T21:27:44.758Z,14.00
2018-02-13T21:30:13.080Z,17.85
2018-02-13T21:32:41.438Z,16.70
2018-02-13T21:35:09.751Z,20.88
2018-02-13T21:37:38.072Z,14.27
2018-02-13T21:40:06.522Z,17.50
2018-02-13T21:42:34.851Z,15.73
2018-02-13T21:45:03.179Z,14.18
2018-02-13T21:47:31.547Z,16.90
2018-02-13T21:49:59.860Z,15.90
2018-02-13T21:52:28.190Z,15.68
2018-02-13T21:54:56.621Z,14.73
2018-02-13T21:57:24.768Z,17.12
2018-02-13T21:59:53.088Z,17.20
2018-02-13T22:02:21.407Z,12.93
2018-02-13T22:04:49.776Z,14.32
2018-02-13T22:07:18.528Z,16.98
2018-02-13T22:09:46.867Z,21.52
2018-02-13T22:12:15.388Z,13.35
2018-02-13T22:14:43.746Z,17.20
2018-02-13T22:17:12.372Z,15.23
2018-02-13T22:19:41.331Z,16.60
2018-02-13T22:22:09.748Z,16.85
2018-02-13T22:24:38.706Z,14.98
2018-02-13T22:27:07.731Z,14.32
2018-02-13T22:29:36.051Z,19.92
2018-02-13T22:32:05.347Z,17.42
2018-02-13T22:34:33.822Z,15.48
2018-02-13T22:37:02.130Z,17.02
2018-02-13T22:39:30.442Z,21.90
2018-02-13T22:41:59.579Z,18.58
2018-02-13T22:44:27.899Z,30.45
2018-02-13T22:46:56.219Z,22.30
2018-02-13T22:49:24.735Z,19.12
2018-02-13T22:51:53.051Z,21.17
2018-02-13T22:54:22.138Z,19.20
2018-02-13T22:56:51.343Z,18.70
2018-02-13T22:59:19.663Z,24.55
2018-02-13T23:01:47.980Z,21.45
2018-02-13T23:04:16.363Z,23.67
2018-02-13T23:06:44.676Z,18.50
2018-02-13T23:09:13.821Z,22.55
2018-02-13T23:11:42.283Z,20.37
2018-02-13T23:14:10.600Z,19.60
2018-02-13T23:16:38.923Z,22.23
2018-02-13T23:19:07.292Z,23.50
2018-02-13T23:21:35.923Z,22.10
2018-02-13T23:24:04.245Z,24.23
2018-02-13T23:26:32.564Z,20.90
2018-02-13T23:29:00.924Z,22.48
2018-02-13T23:31:29.243Z,21.77
2018-02-13T23:33:57.550Z,24.08
2018-02-13T23:36:26.388Z,21.77
2018-02-13T23:38:54.703Z,21.35
2018-02-13T23:41:23.083Z,22.85
2018-02-13T23:43:52.173Z,24.75
2018-02-13T23:46:21.255Z,27.62
2018-02-13T23:48:49.611Z,28.92
2018-02-13T23:51:17.941Z,19.95
2018-02-13T23:53:46.252Z,29.20
2018-02-13T23:56:14.604Z,26.77
2018-02-13T23:58:43.380Z,24.55
